Sutcliffe, Nevada
Current Conditions -  °F | °C
As of 6:55 PM on Tuesday 25 Nov 2014 (Local Time) from KRTS Reporting Station
Clear Clear  
Wind Chill: 42°   Ceiling: Unl
Heat Index: 45°   Visibility: 10mi
Dew Point: 25°   Wind: 5mph
Humidity: 46%   Direction: 70°ENE
Pressure: 30.44"   Gusts: NA
Location:  39.8171°N, 119.63°W
Report Text: KRTS 260255Z AUTO 07004KT 10SM CLR 07/M04 A3044 RMK AO2
Loading
Personal Weather Stations






























Interactive Weather Map New forecast layout! Learn more

10-Day Weather Forecast

Advertisements
Track Severe Weather on mobile